sensor_id;sensor_type;location;lat;lon;timestamp;pressure;altitude;pressure_sealevel;temperature;humidity
29549;BME280;16487;53.094;8.800;2022-10-17T00:01:03;101970.38;;;13.71;100.00
29549;BME280;16487;53.094;8.800;2022-10-17T00:03:31;101978.78;;;13.71;100.00
29549;BME280;16487;53.094;8.800;2022-10-17T00:06:04;101986.69;;;13.76;100.00
29549;BME280;16487;53.094;8.800;2022-10-17T00:08:31;101987.81;;;13.79;100.00
29549;BME280;16487;53.094;8.800;2022-10-17T00:11:01;101976.81;;;13.88;100.00
29549;BME280;16487;53.094;8.800;2022-10-17T00:13:31;101982.41;;;13.88;100.00
29549;BME280;16487;53.094;8.800;2022-10-17T00:15:59;101978.81;;;13.88;100.00
29549;BME280;16487;53.094;8.800;2022-10-17T00:18:26;101978.22;;;13.96;100.00
29549;BME280;16487;53.094;8.800;2022-10-17T00:20:53;101972.00;;;13.89;100.00
29549;BME280;16487;53.094;8.800;2022-10-17T00:23:22;101971.13;;;13.92;100.00
29549;BME280;16487;53.094;8.800;2022-10-17T00:25:57;101976.72;;;13.92;100.00
29549;BME280;16487;53.094;8.800;2022-10-17T00:28:24;101979.44;;;13.95;100.00
29549;BME280;16487;53.094;8.800;2022-10-17T00:30:55;101977.78;;;13.98;100.00
29549;BME280;16487;53.094;8.800;2022-10-17T00:33:23;101976.03;;;14.04;100.00
29549;BME280;16487;53.094;8.800;2022-10-17T00:35:50;101974.44;;;14.03;100.00
29549;BME280;16487;53.094;8.800;2022-10-17T00:38:17;101972.88;;;14.02;100.00
29549;BME280;16487;53.094;8.800;2022-10-17T00:40:46;101970.69;;;13.93;100.00
29549;BME280;16487;53.094;8.800;2022-10-17T00:43:16;101970.41;;;13.88;100.00
29549;BME280;16487;53.094;8.800;2022-10-17T00:45:44;101969.53;;;13.74;100.00
29549;BME280;16487;53.094;8.800;2022-10-17T00:48:12;101959.88;;;13.75;100.00
29549;BME280;16487;53.094;8.800;2022-10-17T00:50:42;101954.00;;;13.70;100.00
29549;BME280;16487;53.094;8.800;2022-10-17T00:53:11;101966.59;;;13.62;100.00
29549;BME280;16487;53.094;8.800;2022-10-17T00:55:44;101971.66;;;13.51;100.00
29549;BME280;16487;53.094;8.800;2022-10-17T00:58:15;101976.63;;;13.43;100.00
29549;BME280;16487;53.094;8.800;2022-10-17T01:00:43;101989.13;;;13.39;100.00
29549;BME280;16487;53.094;8.800;2022-10-17T01:03:12;101987.41;;;13.25;100.00
29549;BME280;16487;53.094;8.800;2022-10-17T01:05:40;101994.66;;;13.23;100.00
29549;BME280;16487;53.094;8.800;2022-10-17T01:08:08;101995.94;;;13.18;100.00
29549;BME280;16487;53.094;8.800;2022-10-17T01:10:44;102001.03;;;13.23;100.00
29549;BME280;16487;53.094;8.800;2022-10-17T01:13:22;102009.00;;;13.25;100.00
29549;BME280;16487;53.094;8.800;2022-10-17T01:16:00;102020.13;;;13.28;100.00
29549;BME280;16487;53.094;8.800;2022-10-17T01:18:44;102024.59;;;13.26;100.00
29549;BME280;16487;53.094;8.800;2022-10-17T01:21:36;102028.19;;;13.26;100.00
29549;BME280;16487;53.094;8.800;2022-10-17T01:27:35;102027.56;;;13.38;100.00
29549;BME280;16487;53.094;8.800;2022-10-17T01:33:26;102005.41;;;13.44;100.00
29549;BME280;16487;53.094;8.800;2022-10-17T01:36:00;101998.44;;;13.52;100.00
29549;BME280;16487;53.094;8.800;2022-10-17T01:38:37;101997.13;;;13.56;100.00
29549;BME280;16487;53.094;8.800;2022-10-17T01:41:14;101994.06;;;13.51;100.00
29549;BME280;16487;53.094;8.800;2022-10-17T01:43:50;101974.97;;;13.46;100.00
29549;BME280;16487;53.094;8.800;2022-10-17T01:46:22;101981.38;;;13.46;100.00
29549;BME280;16487;53.094;8.800;2022-10-17T01:48:56;101981.38;;;13.46;100.00
29549;BME280;16487;53.094;8.800;2022-10-17T01:51:28;101964.72;;;13.39;100.00
29549;BME280;16487;53.094;8.800;2022-10-17T01:54:00;101979.06;;;13.41;100.00
29549;BME280;16487;53.094;8.800;2022-10-17T01:56:30;101968.56;;;13.45;100.00
29549;BME280;16487;53.094;8.800;2022-10-17T01:59:02;101964.03;;;13.51;100.00
29549;BME280;16487;53.094;8.800;2022-10-17T02:01:33;101970.97;;;13.47;100.00
29549;BME280;16487;53.094;8.800;2022-10-17T02:04:06;101970.16;;;13.46;100.00
29549;BME280;16487;53.094;8.800;2022-10-17T02:06:35;101968.84;;;13.51;100.00
29549;BME280;16487;53.094;8.800;2022-10-17T02:09:15;101964.56;;;13.46;100.00
29549;BME280;16487;53.094;8.800;2022-10-17T02:11:45;101962.63;;;13.43;100.00
29549;BME280;16487;53.094;8.800;2022-10-17T02:14:24;101948.97;;;13.45;100.00
29549;BME280;16487;53.094;8.800;2022-10-17T02:17:02;101950.63;;;13.43;100.00
29549;BME280;16487;53.094;8.800;2022-10-17T02:19:43;101956.22;;;13.43;100.00
29549;BME280;16487;53.094;8.800;2022-10-17T02:22:24;101954.56;;;13.45;100.00
29549;BME280;16487;53.094;8.800;2022-10-17T02:24:59;101939.88;;;13.41;100.00
29549;BME280;16487;53.094;8.800;2022-10-17T02:27:36;101936.78;;;13.36;100.00
29549;BME280;16487;53.094;8.800;2022-10-17T02:30:11;101948.06;;;13.32;100.00
29549;BME280;16487;53.094;8.800;2022-10-17T02:32:44;101949.06;;;13.22;100.00
29549;BME280;16487;53.094;8.800;2022-10-17T02:35:21;101955.88;;;13.21;100.00
29549;BME280;16487;53.094;8.800;2022-10-17T02:37:52;101961.91;;;13.20;100.00
29549;BME280;16487;53.094;8.800;2022-10-17T02:40:21;101955.56;;;13.19;100.00
29549;BME280;16487;53.094;8.800;2022-10-17T02:42:52;101954.03;;;13.15;100.00
29549;BME280;16487;53.094;8.800;2022-10-17T02:45:23;101956.91;;;13.11;100.00
29549;BME280;16487;53.094;8.800;2022-10-17T02:47:57;101967.28;;;13.11;100.00
29549;BME280;16487;53.094;8.800;2022-10-17T02:50:35;101963.38;;;13.08;100.00
29549;BME280;16487;53.094;8.800;2022-10-17T02:53:08;101981.41;;;13.07;100.00
29549;BME280;16487;53.094;8.800;2022-10-17T02:55:43;101982.97;;;13.08;100.00
29549;BME280;16487;53.094;8.800;2022-10-17T02:58:16;101985.81;;;13.05;100.00
29549;BME280;16487;53.094;8.800;2022-10-17T03:00:45;101989.50;;;13.02;100.00
29549;BME280;16487;53.094;8.800;2022-10-17T03:03:20;101999.13;;;12.97;100.00
29549;BME280;16487;53.094;8.800;2022-10-17T03:05:50;101987.94;;;12.97;100.00
29549;BME280;16487;53.094;8.800;2022-10-17T03:08:18;101996.84;;;12.92;100.00
29549;BME280;16487;53.094;8.800;2022-10-17T03:10:45;101999.19;;;12.94;100.00
29549;BME280;16487;53.094;8.800;2022-10-17T03:13:13;102008.88;;;12.89;100.00
29549;BME280;16487;53.094;8.800;2022-10-17T03:15:40;102014.06;;;12.91;100.00
29549;BME280;16487;53.094;8.800;2022-10-17T03:18:08;102021.78;;;12.83;100.00
29549;BME280;16487;53.094;8.800;2022-10-17T03:20:35;102023.25;;;12.91;100.00
29549;BME280;16487;53.094;8.800;2022-10-17T03:23:04;102025.81;;;12.82;100.00
29549;BME280;16487;53.094;8.800;2022-10-17T03:25:31;102031.09;;;12.77;100.00
29549;BME280;16487;53.094;8.800;2022-10-17T03:27:59;102028.31;;;12.77;100.00
29549;BME280;16487;53.094;8.800;2022-10-17T03:30:27;102031.53;;;12.75;100.00
29549;BME280;16487;53.094;8.800;2022-10-17T03:32:56;102039.56;;;12.73;100.00
29549;BME280;16487;53.094;8.800;2022-10-17T03:35:23;102041.78;;;12.82;100.00
29549;BME280;16487;53.094;8.800;2022-10-17T03:37:53;102037.00;;;12.82;100.00
29549;BME280;16487;53.094;8.800;2022-10-17T03:40:23;102043.03;;;12.81;100.00
29549;BME280;16487;53.094;8.800;2022-10-17T03:42:50;102052.94;;;12.85;100.00
29549;BME280;16487;53.094;8.800;2022-10-17T03:45:18;102062.44;;;12.91;100.00
29549;BME280;16487;53.094;8.800;2022-10-17T03:47:46;102062.44;;;12.91;100.00
29549;BME280;16487;53.094;8.800;2022-10-17T03:50:14;102063.22;;;12.92;100.00
29549;BME280;16487;53.094;8.800;2022-10-17T03:52:45;102063.94;;;12.96;100.00
29549;BME280;16487;53.094;8.800;2022-10-17T03:55:13;102073.50;;;12.98;100.00
29549;BME280;16487;53.094;8.800;2022-10-17T03:57:42;102071.78;;;13.04;100.00
29549;BME280;16487;53.094;8.800;2022-10-17T04:00:13;102074.59;;;13.04;100.00
29549;BME280;16487;53.094;8.800;2022-10-17T04:02:40;102084.09;;;13.10;100.00
29549;BME280;16487;53.094;8.800;2022-10-17T04:05:12;102080.81;;;13.15;100.00
29549;BME280;16487;53.094;8.800;2022-10-17T04:07:40;102081.22;;;13.14;100.00
29549;BME280;16487;53.094;8.800;2022-10-17T04:10:08;102078.44;;;13.14;100.00
29549;BME280;16487;53.094;8.800;2022-10-17T04:12:36;102078.88;;;13.12;100.00
29549;BME280;16487;53.094;8.800;2022-10-17T04:15:06;102073.25;;;13.12;100.00
29549;BME280;16487;53.094;8.800;2022-10-17T04:17:34;102064.44;;;13.14;100.00
29549;BME280;16487;53.094;8.800;2022-10-17T04:20:06;102060.41;;;13.15;100.00
29549;BME280;16487;53.094;8.800;2022-10-17T04:22:34;102063.63;;;13.13;100.00
29549;BME280;16487;53.094;8.800;2022-10-17T04:25:01;102056.53;;;13.09;100.00
29549;BME280;16487;53.094;8.800;2022-10-17T04:27:48;102059.34;;;13.09;100.00
29549;BME280;16487;53.094;8.800;2022-10-17T04:30:16;102059.78;;;13.07;100.00
29549;BME280;16487;53.094;8.800;2022-10-17T04:32:44;102055.66;;;13.12;100.00
29549;BME280;16487;53.094;8.800;2022-10-17T04:35:16;102054.88;;;13.11;100.00
29549;BME280;16487;53.094;8.800;2022-10-17T04:37:48;102056.09;;;13.10;100.00
29549;BME280;16487;53.094;8.800;2022-10-17T04:40:17;102056.47;;;13.12;100.00
29549;BME280;16487;53.094;8.800;2022-10-17T04:42:45;102057.66;;;13.11;100.00
29549;BME280;16487;53.094;8.800;2022-10-17T04:45:18;102062.91;;;13.09;100.00
29549;BME280;16487;53.094;8.800;2022-10-17T04:47:48;102047.72;;;13.10;100.00
29549;BME280;16487;53.094;8.800;2022-10-17T04:50:15;102045.28;;;13.12;100.00
29549;BME280;16487;53.094;8.800;2022-10-17T04:53:01;102051.63;;;13.13;100.00
29549;BME280;16487;53.094;8.800;2022-10-17T04:55:29;102046.53;;;13.08;100.00
29549;BME280;16487;53.094;8.800;2022-10-17T04:57:56;102042.97;;;13.07;100.00
29549;BME280;16487;53.094;8.800;2022-10-17T05:00:25;102054.16;;;13.07;100.00
29549;BME280;16487;53.094;8.800;2022-10-17T05:03:10;102054.50;;;13.09;100.00
29549;BME280;16487;53.094;8.800;2022-10-17T05:05:38;102051.72;;;13.09;100.00
29549;BME280;16487;53.094;8.800;2022-10-17T05:08:06;102041.31;;;13.10;100.00
29549;BME280;16487;53.094;8.800;2022-10-17T05:10:35;102041.75;;;13.08;100.00
29549;BME280;16487;53.094;8.800;2022-10-17T05:13:04;102045.28;;;13.12;100.00
29549;BME280;16487;53.094;8.800;2022-10-17T05:15:34;102053.31;;;13.10;100.00
29549;BME280;16487;53.094;8.800;2022-10-17T05:18:02;102048.41;;;13.14;100.00
29549;BME280;16487;53.094;8.800;2022-10-17T05:20:30;102046.47;;;13.11;100.00
29549;BME280;16487;53.094;8.800;2022-10-17T05:22:57;102041.31;;;13.10;100.00
29549;BME280;16487;53.094;8.800;2022-10-17T05:25:29;102038.50;;;13.10;100.00
29549;BME280;16487;53.094;8.800;2022-10-17T05:27:56;102040.50;;;13.09;100.00
29549;BME280;16487;53.094;8.800;2022-10-17T05:30:23;102032.13;;;13.09;100.00
29549;BME280;16487;53.094;8.800;2022-10-17T05:32:57;102032.47;;;13.11;100.00
29549;BME280;16487;53.094;8.800;2022-10-17T05:35:24;102025.31;;;13.10;100.00
29549;BME280;16487;53.094;8.800;2022-10-17T05:37:52;102038.06;;;13.11;100.00
29549;BME280;16487;53.094;8.800;2022-10-17T05:40:21;102032.97;;;13.06;100.00
29549;BME280;16487;53.094;8.800;2022-10-17T05:42:51;102030.19;;;13.06;100.00
29549;BME280;16487;53.094;8.800;2022-10-17T05:45:19;102028.63;;;13.05;100.00
29549;BME280;16487;53.094;8.800;2022-10-17T05:47:46;102039.69;;;13.12;100.00
29549;BME280;16487;53.094;8.800;2022-10-17T05:50:15;102042.09;;;13.10;100.00
29549;BME280;16487;53.094;8.800;2022-10-17T05:52:58;102036.50;;;13.10;100.00
29549;BME280;16487;53.094;8.800;2022-10-17T05:55:25;102046.47;;;13.11;100.00
29549;BME280;16487;53.094;8.800;2022-10-17T05:57:52;102044.91;;;13.10;100.00
29549;BME280;16487;53.094;8.800;2022-10-17T06:00:21;102038.94;;;13.08;100.00
29549;BME280;16487;53.094;8.800;2022-10-17T06:02:55;102040.88;;;13.11;100.00
29549;BME280;16487;53.094;8.800;2022-10-17T06:05:24;102039.69;;;13.12;100.00
29549;BME280;16487;53.094;8.800;2022-10-17T06:07:52;102037.22;;;13.14;100.00
29549;BME280;16487;53.094;8.800;2022-10-17T06:10:25;102035.66;;;13.13;100.00
29549;BME280;16487;53.094;8.800;2022-10-17T06:12:54;102039.53;;;13.19;100.00
29549;BME280;16487;53.094;8.800;2022-10-17T06:15:21;102039.53;;;13.19;100.00
29549;BME280;16487;53.094;8.800;2022-10-17T06:17:55;102041.09;;;13.20;100.00
29549;BME280;16487;53.094;8.800;2022-10-17T06:20:22;102051.44;;;13.23;100.00
29549;BME280;16487;53.094;8.800;2022-10-17T06:22:51;102059.78;;;13.27;100.00
29549;BME280;16487;53.094;8.800;2022-10-17T06:25:32;102072.84;;;13.33;100.00
29549;BME280;16487;53.094;8.800;2022-10-17T06:28:00;102069.91;;;13.40;100.00
29549;BME280;16487;53.094;8.800;2022-10-17T06:30:27;102078.53;;;13.49;100.00
29549;BME280;16487;53.094;8.800;2022-10-17T06:32:55;102090.09;;;13.51;100.00
29549;BME280;16487;53.094;8.800;2022-10-17T06:35:23;102076.75;;;13.59;100.00
29549;BME280;16487;53.094;8.800;2022-10-17T06:37:52;102077.81;;;13.65;100.00
29549;BME280;16487;53.094;8.800;2022-10-17T06:40:20;102072.50;;;13.70;100.00
29549;BME280;16487;53.094;8.800;2022-10-17T06:42:48;102085.63;;;13.73;100.00
29549;BME280;16487;53.094;8.800;2022-10-17T06:45:37;102083.84;;;13.83;100.00
29549;BME280;16487;53.094;8.800;2022-10-17T06:48:15;102063.78;;;13.85;100.00
29549;BME280;16487;53.094;8.800;2022-10-17T06:50:51;102064.13;;;13.87;100.00
29549;BME280;16487;53.094;8.800;2022-10-17T06:53:27;102062.03;;;13.91;100.00
29549;BME280;16487;53.094;8.800;2022-10-17T06:56:25;102063.97;;;13.94;100.00
29549;BME280;16487;53.094;8.800;2022-10-17T06:59:08;102059.91;;;14.14;100.00
29549;BME280;16487;53.094;8.800;2022-10-17T07:01:36;102040.88;;;14.22;100.00
29549;BME280;16487;53.094;8.800;2022-10-17T07:04:07;102032.16;;;14.36;100.00
29549;BME280;16487;53.094;8.800;2022-10-17T07:06:34;102027.97;;;14.44;100.00
29549;BME280;16487;53.094;8.800;2022-10-17T07:09:09;102012.88;;;14.54;100.00
29549;BME280;16487;53.094;8.800;2022-10-17T07:11:36;102009.09;;;14.60;100.00
29549;BME280;16487;53.094;8.800;2022-10-17T07:14:04;102006.56;;;14.66;100.00
29549;BME280;16487;53.094;8.800;2022-10-17T07:16:32;101997.16;;;14.72;100.00
29549;BME280;16487;53.094;8.800;2022-10-17T07:19:06;102001.88;;;14.75;100.00
29549;BME280;16487;53.094;8.800;2022-10-17T07:21:36;101988.19;;;14.77;100.00
29549;BME280;16487;53.094;8.800;2022-10-17T07:24:08;101968.53;;;14.77;100.00
29549;BME280;16487;53.094;8.800;2022-10-17T07:26:35;101956.31;;;14.84;100.00
29549;BME280;16487;53.094;8.800;2022-10-17T07:29:03;101939.19;;;14.94;100.00
29549;BME280;16487;53.094;8.800;2022-10-17T07:31:40;101937.69;;;15.19;100.00
29549;BME280;16487;53.094;8.800;2022-10-17T07:34:08;101934.56;;;15.29;100.00
29549;BME280;16487;53.094;8.800;2022-10-17T07:36:35;101923.22;;;15.20;100.00
29549;BME280;16487;53.094;8.800;2022-10-17T07:39:04;101907.72;;;15.28;100.00
29549;BME280;16487;53.094;8.800;2022-10-17T07:41:35;101910.28;;;15.23;100.00
29549;BME280;16487;53.094;8.800;2022-10-17T07:44:04;101900.28;;;15.34;100.00
29549;BME280;16487;53.094;8.800;2022-10-17T07:46:36;101892.03;;;15.43;100.00
29549;BME280;16487;53.094;8.800;2022-10-17T07:49:04;101885.94;;;15.32;100.00
29549;BME280;16487;53.094;8.800;2022-10-17T07:51:32;101878.31;;;15.45;100.00
29549;BME280;16487;53.094;8.800;2022-10-17T07:54:00;101864.72;;;15.44;100.00
29549;BME280;16487;53.094;8.800;2022-10-17T07:56:27;101857.19;;;15.41;100.00
29549;BME280;16487;53.094;8.800;2022-10-17T07:58:56;101849.09;;;15.55;100.00
29549;BME280;16487;53.094;8.800;2022-10-17T08:01:23;101844.38;;;15.52;100.00
29549;BME280;16487;53.094;8.800;2022-10-17T08:03:51;101844.72;;;15.54;100.00
29549;BME280;16487;53.094;8.800;2022-10-17T08:06:18;101837.59;;;15.62;100.00
29549;BME280;16487;53.094;8.800;2022-10-17T08:08:45;101837.03;;;15.80;100.00
29549;BME280;16487;53.094;8.800;2022-10-17T08:11:13;101841.84;;;15.79;100.00
29549;BME280;16487;53.094;8.800;2022-10-17T08:13:41;101841.50;;;15.90;100.00
29549;BME280;16487;53.094;8.800;2022-10-17T08:16:11;101837.91;;;15.89;100.00
29549;BME280;16487;53.094;8.800;2022-10-17T08:18:40;101832.59;;;15.91;100.00
29549;BME280;16487;53.094;8.800;2022-10-17T08:21:08;101830.94;;;15.94;100.00
29549;BME280;16487;53.094;8.800;2022-10-17T08:23:36;101824.94;;;16.04;100.00
29549;BME280;16487;53.094;8.800;2022-10-17T08:26:05;101819.19;;;16.30;100.00
29549;BME280;16487;53.094;8.800;2022-10-17T08:28:34;101808.53;;;16.59;100.00
29549;BME280;16487;53.094;8.800;2022-10-17T08:31:02;101799.09;;;16.74;100.00
29549;BME280;16487;53.094;8.800;2022-10-17T08:33:31;101788.19;;;16.85;100.00
29549;BME280;16487;53.094;8.800;2022-10-17T08:35:59;101791.34;;;16.87;100.00
29549;BME280;16487;53.094;8.800;2022-10-17T08:38:27;101781.59;;;17.10;100.00
29549;BME280;16487;53.094;8.800;2022-10-17T08:41:00;101787.22;;;17.10;100.00
29549;BME280;16487;53.094;8.800;2022-10-17T08:43:37;101778.03;;;17.18;100.00
29549;BME280;16487;53.094;8.800;2022-10-17T08:46:11;101774.94;;;17.35;100.00
29549;BME280;16487;53.094;8.800;2022-10-17T08:48:41;101766.97;;;17.33;100.00
29549;BME280;16487;53.094;8.800;2022-10-17T08:51:17;101764.44;;;17.35;100.00
29549;BME280;16487;53.094;8.800;2022-10-17T08:53:48;101763.53;;;17.38;100.00
29549;BME280;16487;53.094;8.800;2022-10-17T08:56:19;101767.81;;;17.52;100.00
29549;BME280;16487;53.094;8.800;2022-10-17T08:59:10;101767.38;;;17.62;100.00
29549;BME280;16487;53.094;8.800;2022-10-17T09:01:43;101763.63;;;17.74;100.00
29549;BME280;16487;53.094;8.800;2022-10-17T09:04:37;101774.16;;;17.92;100.00
29549;BME280;16487;53.094;8.800;2022-10-17T09:07:12;101768.66;;;18.24;100.00
29549;BME280;16487;53.094;8.800;2022-10-17T09:09:51;101762.09;;;18.46;100.00
29549;BME280;16487;53.094;8.800;2022-10-17T09:12:27;101761.94;;;18.40;100.00
29549;BME280;16487;53.094;8.800;2022-10-17T09:15:30;101760.03;;;18.55;100.00
29549;BME280;16487;53.094;8.800;2022-10-17T09:18:02;101749.78;;;18.67;100.00
29549;BME280;16487;53.094;8.800;2022-10-17T09:20:37;101734.09;;;18.75;100.00
29549;BME280;16487;53.094;8.800;2022-10-17T09:23:12;101726.44;;;18.66;100.00
29549;BME280;16487;53.094;8.800;2022-10-17T09:25:43;101741.19;;;18.61;100.00
29549;BME280;16487;53.094;8.800;2022-10-17T09:28:15;101742.19;;;18.91;100.00
29549;BME280;16487;53.094;8.800;2022-10-17T09:30:45;101729.75;;;18.97;100.00
29549;BME280;16487;53.094;8.800;2022-10-17T09:33:14;101737.03;;;19.22;100.00
29549;BME280;16487;53.094;8.800;2022-10-17T09:36:09;101738.25;;;19.30;100.00
29549;BME280;16487;53.094;8.800;2022-10-17T09:38:40;101747.06;;;19.32;100.00
29549;BME280;16487;53.094;8.800;2022-10-17T09:41:15;101751.22;;;19.46;100.00
29549;BME280;16487;53.094;8.800;2022-10-17T09:44:13;101738.44;;;19.50;100.00
29549;BME280;16487;53.094;8.800;2022-10-17T09:46:44;101738.66;;;19.85;100.00
29549;BME280;16487;53.094;8.800;2022-10-17T09:49:17;101744.38;;;19.99;100.00
29549;BME280;16487;53.094;8.800;2022-10-17T09:51:47;101748.81;;;19.91;100.00
29549;BME280;16487;53.094;8.800;2022-10-17T09:54:19;101749.31;;;19.90;100.00
29549;BME280;16487;53.094;8.800;2022-10-17T09:56:56;101758.47;;;20.08;100.00
29549;BME280;16487;53.094;8.800;2022-10-17T09:59:32;101755.50;;;20.03;100.00
29549;BME280;16487;53.094;8.800;2022-10-17T10:02:16;101761.09;;;20.12;100.00
29549;BME280;16487;53.094;8.800;2022-10-17T10:04:52;101769.88;;;20.14;100.00
29549;BME280;16487;53.094;8.800;2022-10-17T10:07:37;101780.69;;;20.01;100.00
29549;BME280;16487;53.094;8.800;2022-10-17T10:10:07;101776.31;;;20.00;100.00
29549;BME280;16487;53.094;8.800;2022-10-17T10:13:01;101774.91;;;19.95;100.00
29549;BME280;16487;53.094;8.800;2022-10-17T10:15:33;101776.56;;;19.87;100.00
29549;BME280;16487;53.094;8.800;2022-10-17T10:18:00;101768.06;;;19.87;100.00
29549;BME280;16487;53.094;8.800;2022-10-17T10:20:31;101765.53;;;19.89;100.00
29549;BME280;16487;53.094;8.800;2022-10-17T10:23:21;101772.69;;;19.99;100.00
29549;BME280;16487;53.094;8.800;2022-10-17T10:25:53;101768.81;;;20.11;100.00
29549;BME280;16487;53.094;8.800;2022-10-17T10:28:25;101782.63;;;20.18;100.00
29549;BME280;16487;53.094;8.800;2022-10-17T10:30:54;101784.19;;;20.19;100.00
29549;BME280;16487;53.094;8.800;2022-10-17T10:33:25;101797.13;;;20.49;100.00
29549;BME280;16487;53.094;8.800;2022-10-17T10:35:56;101810.00;;;20.50;100.00
29549;BME280;16487;53.094;8.800;2022-10-17T10:38:25;101802.97;;;20.61;100.00
29549;BME280;16487;53.094;8.800;2022-10-17T10:40:55;101800.16;;;20.46;100.00
29549;BME280;16487;53.094;8.800;2022-10-17T10:43:29;101794.97;;;20.44;100.00
29549;BME280;16487;53.094;8.800;2022-10-17T10:45:57;101803.66;;;20.41;100.00
29549;BME280;16487;53.094;8.800;2022-10-17T10:48:26;101803.53;;;20.35;100.00
29549;BME280;16487;53.094;8.800;2022-10-17T10:50:59;101806.22;;;20.15;100.00
29549;BME280;16487;53.094;8.800;2022-10-17T10:53:33;101809.16;;;20.21;100.00
29549;BME280;16487;53.094;8.800;2022-10-17T10:56:07;101814.16;;;20.02;100.00
29549;BME280;16487;53.094;8.800;2022-10-17T10:58:40;101809.66;;;19.96;100.00
29549;BME280;16487;53.094;8.800;2022-10-17T11:01:16;101796.19;;;19.91;100.00
29549;BME280;16487;53.094;8.800;2022-10-17T11:03:54;101805.25;;;19.95;100.00
29549;BME280;16487;53.094;8.800;2022-10-17T11:06:27;101813.03;;;19.85;100.00
29549;BME280;16487;53.094;8.800;2022-10-17T11:09:05;101836.06;;;19.69;100.00
29549;BME280;16487;53.094;8.800;2022-10-17T11:11:39;101828.03;;;19.77;100.00
29549;BME280;16487;53.094;8.800;2022-10-17T11:14:12;101833.38;;;19.75;100.00
29549;BME280;16487;53.094;8.800;2022-10-17T11:16:45;101860.09;;;19.41;100.00
29549;BME280;16487;53.094;8.800;2022-10-17T11:19:17;101859.50;;;19.19;100.00
29549;BME280;16487;53.094;8.800;2022-10-17T11:22:02;101840.16;;;18.76;100.00
29549;BME280;16487;53.094;8.800;2022-10-17T11:24:41;101828.91;;;18.49;100.00
29549;BME280;16487;53.094;8.800;2022-10-17T11:27:10;101857.09;;;18.30;100.00
29549;BME280;16487;53.094;8.800;2022-10-17T11:29:39;101870.28;;;18.24;100.00
29549;BME280;16487;53.094;8.800;2022-10-17T11:32:11;101869.94;;;18.13;100.00
29549;BME280;16487;53.094;8.800;2022-10-17T11:34:42;101909.41;;;18.04;100.00
29549;BME280;16487;53.094;8.800;2022-10-17T11:37:14;101921.31;;;17.99;100.00
29549;BME280;16487;53.094;8.800;2022-10-17T11:39:48;101946.56;;;18.03;100.00
29549;BME280;16487;53.094;8.800;2022-10-17T11:42:20;101975.56;;;18.03;100.00
29549;BME280;16487;53.094;8.800;2022-10-17T11:44:51;101993.44;;;18.09;100.00
29549;BME280;16487;53.094;8.800;2022-10-17T11:47:28;102020.91;;;18.09;100.00
29549;BME280;16487;53.094;8.800;2022-10-17T11:50:02;102038.44;;;18.04;100.00
29549;BME280;16487;53.094;8.800;2022-10-17T11:52:54;102068.41;;;18.10;100.00
29549;BME280;16487;53.094;8.800;2022-10-17T11:55:26;102088.50;;;18.12;100.00
29549;BME280;16487;53.094;8.800;2022-10-17T11:58:00;102112.91;;;18.06;100.00
29549;BME280;16487;53.094;8.800;2022-10-17T12:00:45;102133.91;;;18.05;100.00
29549;BME280;16487;53.094;8.800;2022-10-17T12:03:30;102168.69;;;18.02;100.00
29549;BME280;16487;53.094;8.800;2022-10-17T12:06:10;102198.81;;;18.05;100.00
29549;BME280;16487;53.094;8.800;2022-10-17T12:08:44;102242.97;;;17.99;100.00
29549;BME280;16487;53.094;8.800;2022-10-17T12:11:22;102262.50;;;17.94;100.00
29549;BME280;16487;53.094;8.800;2022-10-17T12:13:54;102297.84;;;17.86;100.00
29549;BME280;16487;53.094;8.800;2022-10-17T12:16:48;102365.34;;;17.80;100.00
29549;BME280;16487;53.094;8.800;2022-10-17T12:19:30;102354.88;;;17.68;100.00
29549;BME280;16487;53.094;8.800;2022-10-17T12:22:19;102309.88;;;17.65;100.00
29549;BME280;16487;53.094;8.800;2022-10-17T12:24:58;102357.03;;;17.64;100.00
29549;BME280;16487;53.094;8.800;2022-10-17T12:27:39;102410.81;;;17.70;100.00
29549;BME280;16487;53.094;8.800;2022-10-17T12:30:22;102445.13;;;17.68;100.00
29549;BME280;16487;53.094;8.800;2022-10-17T12:33:02;102474.81;;;17.73;100.00
29549;BME280;16487;53.094;8.800;2022-10-17T12:35:35;102484.94;;;17.70;100.00
29549;BME280;16487;53.094;8.800;2022-10-17T12:38:27;102502.56;;;17.74;100.00
29549;BME280;16487;53.094;8.800;2022-10-17T12:40:58;102510.69;;;17.72;96.03
29549;BME280;16487;53.094;8.800;2022-10-17T12:43:57;102523.41;;;17.77;91.16
29549;BME280;16487;53.094;8.800;2022-10-17T12:46:46;102543.06;;;17.80;87.59
29549;BME280;16487;53.094;8.800;2022-10-17T12:49:38;102542.50;;;17.85;84.46
29549;BME280;16487;53.094;8.800;2022-10-17T12:52:50;102545.44;;;17.82;83.34
29549;BME280;16487;53.094;8.800;2022-10-17T12:55:23;102540.44;;;17.73;81.79
29549;BME280;16487;53.094;8.800;2022-10-17T12:57:54;102549.47;;;17.68;80.58
29549;BME280;16487;53.094;8.800;2022-10-17T13:00:30;102588.97;;;17.68;79.38
29549;BME280;16487;53.094;8.800;2022-10-17T13:03:04;102629.16;;;17.72;78.04
29549;BME280;16487;53.094;8.800;2022-10-17T13:05:34;102648.00;;;17.75;77.22
29549;BME280;16487;53.094;8.800;2022-10-17T13:08:05;102648.44;;;17.74;77.23
29549;BME280;16487;53.094;8.800;2022-10-17T13:10:35;102666.38;;;17.67;76.93
29549;BME280;16487;53.094;8.800;2022-10-17T13:13:15;102683.28;;;17.67;76.42
29549;BME280;16487;53.094;8.800;2022-10-17T13:15:46;102703.38;;;17.69;75.83